Time;durP1;ratioP1;P1;durP2;ratioP2;P2;SDS_P1;SDS_P2;PMS_P1;PMS_P2;Temp;Humidity;BMP_temperature;BMP_pressure;BME280_temperature;BME280_humidity;BME280_pressure;Samples;Min_cycle;Max_cycle;Signal;HPM_P1;HPM_P2
2022/01/24 00:00:08;;;;;;;;;;;-1.60;99.90;;;;;;4174929;28;19980;-50
2022/01/24 00:02:10;;;;;;;;;;;-1.60;99.90;;;;;;4174496;28;20608;-46
2022/01/24 00:04:12;;;;;;;;;;;-1.80;99.90;;;;;;4174109;28;19936;-49
2022/01/24 00:06:16;;;;;;;;;;;-2.00;99.90;;;;;;4174254;28;20403;-48
2022/01/24 00:08:18;;;;;;;;;;;-2.10;99.90;;;;;;4173207;28;19929;-49
2022/01/24 00:10:24;;;;;;;;;;;-2.10;99.90;;;;;;4168936;28;19959;-46
2022/01/24 00:12:35;;;;;;;;;;;-2.10;99.90;;;;;;4176532;28;19943;-47
2022/01/24 00:17:05;;;;;;;;;;;-2.00;99.90;;;;;;4172857;28;19941;-47
2022/01/24 00:28:20;;;;;;;;;;;-1.90;99.90;;;;;;4172906;28;19975;-47
2022/01/24 00:30:22;;;;;;;;;;;-2.00;99.90;;;;;;4173973;28;20364;-49
2022/01/24 00:32:24;;;;;;;;;;;-2.00;99.90;;;;;;4172163;28;19943;-48
2022/01/24 00:34:26;;;;;;;;;;;-2.00;99.90;;;;;;4173892;28;19932;-50
2022/01/24 00:36:28;;;;;;;;;;;-2.00;99.90;;;;;;4175492;28;19925;-48
2022/01/24 00:38:32;;;;;;;;;;;-1.90;99.90;;;;;;4172269;28;19968;-47
2022/01/24 00:40:38;;;;;;;;;;;-2.00;99.90;;;;;;4173512;28;19964;-47
2022/01/24 00:44:49;;;;;;;;;;;-2.10;99.90;;;;;;4173306;28;20043;-47
2022/01/24 00:46:57;;;;;;;;;;;-2.10;99.90;;;;;;4171600;28;20415;-47
2022/01/24 00:55:32;;;;;;;;;;;-2.20;99.90;;;;;;4173459;28;19963;-48
2022/01/24 00:57:34;;;;;;;;;;;-2.20;99.90;;;;;;4173557;28;19928;-47
2022/01/24 00:59:36;;;;;;;;;;;-2.20;99.90;;;;;;4173081;28;19939;-48
2022/01/24 01:01:39;;;;;;;;;;;-2.20;99.90;;;;;;4174444;28;19933;-47
2022/01/24 01:03:41;;;;;;;;;;;-2.30;99.90;;;;;;4166991;28;19929;-49
2022/01/24 01:19:31;;;;;;;;;;;-2.20;99.90;;;;;;4172760;28;20408;-47
2022/01/24 01:21:33;;;;;;;;;;;-2.30;99.90;;;;;;4171893;28;19975;-49
2022/01/24 01:23:38;;;;;;;;;;;-2.30;99.90;;;;;;4173549;28;19956;-46
2022/01/24 01:25:42;;;;;;;;;;;-2.30;99.90;;;;;;4173153;28;20414;-46
2022/01/24 01:27:47;;;;;;;;;;;-2.30;99.90;;;;;;4172656;28;19932;-49
2022/01/24 01:29:56;;;;;;;;;;;-2.20;99.90;;;;;;4172406;28;19979;-49
2022/01/24 01:34:12;;;;;;;;;;;-2.20;99.90;;;;;;4172800;28;19944;-49
2022/01/24 01:36:25;;;;;;;;;;;-2.30;99.90;;;;;;4173599;28;20483;-49
2022/01/24 01:54:34;;;;;;;;;;;-2.60;99.90;;;;;;4172716;28;19975;-49
2022/01/24 01:56:36;;;;;;;;;;;-2.60;99.90;;;;;;4172559;28;19956;-46
2022/01/24 01:58:38;;;;;;;;;;;-2.70;99.90;;;;;;4172124;28;19961;-49
2022/01/24 02:00:42;;;;;;;;;;;-2.80;99.90;;;;;;4173627;28;20472;-49
2022/01/24 02:02:44;;;;;;;;;;;-2.90;99.90;;;;;;4173296;28;20178;-48
2022/01/24 02:04:46;;;;;;;;;;;-2.90;99.90;;;;;;4171755;28;19929;-48
2022/01/24 02:06:48;;;;;;;;;;;-2.90;99.90;;;;;;4173096;28;19936;-48
2022/01/24 02:09:06;;;;;;;;;;;-2.90;99.90;;;;;;4162217;28;19925;-48
2022/01/24 02:11:11;;;;;;;;;;;-2.90;99.90;;;;;;4169988;28;19929;-48
2022/01/24 02:13:13;;;;;;;;;;;-2.90;99.90;;;;;;4172757;28;19964;-49
2022/01/24 02:15:21;;;;;;;;;;;-2.90;99.90;;;;;;4173071;28;19933;-50
2022/01/24 02:17:40;;;;;;;;;;;-2.90;99.90;;;;;;4172295;28;19936;-47
2022/01/24 02:24:04;;;;;;;;;;;-2.90;99.90;;;;;;4165926;28;19926;-47
2022/01/24 02:26:10;;;;;;;;;;;-2.90;99.90;;;;;;4170677;28;20640;-47
2022/01/24 02:28:13;;;;;;;;;;;-2.90;99.90;;;;;;4173893;28;19936;-47
2022/01/24 02:30:37;;;;;;;;;;;-2.90;99.90;;;;;;4171837;28;19940;-47
2022/01/24 02:32:40;;;;;;;;;;;-2.90;99.90;;;;;;4170158;28;19925;-48
2022/01/24 02:34:45;;;;;;;;;;;-2.90;99.90;;;;;;4171073;28;19983;-49
2022/01/24 02:36:48;;;;;;;;;;;-2.90;99.90;;;;;;4162867;28;19936;-49
2022/01/24 02:50:19;;;;;;;;;;;-2.80;99.90;;;;;;4170896;28;19964;-47
2022/01/24 02:52:25;;;;;;;;;;;-2.70;99.90;;;;;;4160376;28;20444;-50
2022/01/24 02:54:29;;;;;;;;;;;-2.70;99.90;;;;;;4166972;28;20290;-50
2022/01/24 02:56:31;;;;;;;;;;;-2.70;99.90;;;;;;4169252;28;19929;-48
2022/01/24 02:58:33;;;;;;;;;;;-2.70;99.90;;;;;;4165219;28;19925;-50
2022/01/24 03:00:36;;;;;;;;;;;-2.70;99.90;;;;;;4166354;28;19971;-49
2022/01/24 03:02:38;;;;;;;;;;;-2.80;99.90;;;;;;4173303;28;19935;-49
2022/01/24 03:04:40;;;;;;;;;;;-2.80;99.90;;;;;;4172204;28;19979;-51
2022/01/24 03:06:42;;;;;;;;;;;-2.70;99.90;;;;;;4172528;28;20091;-48
2022/01/24 03:08:44;;;;;;;;;;;-2.70;99.90;;;;;;4173816;28;20765;-51
2022/01/24 03:10:47;;;;;;;;;;;-2.60;99.90;;;;;;4171582;28;19955;-51
2022/01/24 03:12:58;;;;;;;;;;;-2.60;99.90;;;;;;4171648;28;20035;-47
2022/01/24 03:15:00;;;;;;;;;;;-2.50;99.90;;;;;;4173603;28;19929;-50
2022/01/24 03:17:03;;;;;;;;;;;-2.60;99.90;;;;;;4171675;28;19933;-49
2022/01/24 03:19:05;;;;;;;;;;;-2.70;99.90;;;;;;4169091;28;19932;-50
2022/01/24 03:21:07;;;;;;;;;;;-3.00;99.90;;;;;;4173032;28;19997;-48
2022/01/24 03:23:10;;;;;;;;;;;-3.10;99.90;;;;;;4172765;28;19933;-48
2022/01/24 03:25:12;;;;;;;;;;;-3.10;99.90;;;;;;4172075;28;19937;-50
2022/01/24 03:27:14;;;;;;;;;;;-3.10;99.90;;;;;;4172986;28;20328;-47
2022/01/24 03:29:16;;;;;;;;;;;-3.30;99.90;;;;;;4167825;28;20931;-49
2022/01/24 03:31:18;;;;;;;;;;;-3.40;99.90;;;;;;4170937;28;19935;-50
2022/01/24 03:33:20;;;;;;;;;;;-3.30;99.90;;;;;;4169270;28;19928;-51
2022/01/24 03:35:22;;;;;;;;;;;-3.20;99.90;;;;;;4172519;28;19959;-48
2022/01/24 03:37:24;;;;;;;;;;;-3.10;99.90;;;;;;4171243;28;20388;-47
2022/01/24 03:39:26;;;;;;;;;;;-3.00;99.90;;;;;;4168779;28;19975;-48
2022/01/24 03:41:28;;;;;;;;;;;-2.90;99.90;;;;;;4171781;28;20059;-47
2022/01/24 03:43:30;;;;;;;;;;;-2.80;99.90;;;;;;4170886;28;19928;-50
2022/01/24 03:45:42;;;;;;;;;;;-2.90;99.90;;;;;;4171036;28;19925;-48
2022/01/24 03:48:05;;;;;;;;;;;-3.10;99.90;;;;;;4170402;28;19925;-51
2022/01/24 03:50:09;;;;;;;;;;;-3.20;99.90;;;;;;4171169;28;19979;-50
2022/01/24 03:52:12;;;;;;;;;;;-3.30;99.90;;;;;;4173049;28;20673;-49
2022/01/24 03:54:14;;;;;;;;;;;-3.30;99.90;;;;;;4170528;28;19943;-47
2022/01/24 03:56:16;;;;;;;;;;;-3.30;99.90;;;;;;4171248;28;20019;-49
2022/01/24 03:58:18;;;;;;;;;;;-3.30;99.90;;;;;;4172918;28;20028;-49
2022/01/24 04:00:20;;;;;;;;;;;-3.30;99.90;;;;;;4171257;28;19932;-48
2022/01/24 04:02:24;;;;;;;;;;;-3.40;99.90;;;;;;4171789;28;19976;-47
2022/01/24 04:04:26;;;;;;;;;;;-3.40;99.90;;;;;;4172141;28;20320;-51
2022/01/24 04:06:28;;;;;;;;;;;-3.40;99.90;;;;;;4171405;28;19929;-49
2022/01/24 04:08:30;;;;;;;;;;;-3.50;99.90;;;;;;4153645;28;20412;-48
2022/01/24 04:10:41;;;;;;;;;;;-3.50;99.90;;;;;;4172163;28;19933;-50
2022/01/24 04:12:43;;;;;;;;;;;-3.50;99.90;;;;;;4170419;28;20063;-48
2022/01/24 04:15:11;;;;;;;;;;;-3.40;99.90;;;;;;4170947;28;19929;-47
2022/01/24 04:21:22;;;;;;;;;;;-3.40;99.90;;;;;;4162117;28;20012;-48
2022/01/24 04:21:38;;;;;;;;;;;-3.40;99.90;;;;;;4175080;28;19925;-49
2022/01/24 04:23:43;;;;;;;;;;;-3.40;99.90;;;;;;4176369;28;19932;-48
2022/01/24 04:25:45;;;;;;;;;;;-3.40;99.90;;;;;;4178262;28;20353;-48
2022/01/24 04:27:47;;;;;;;;;;;-3.30;99.90;;;;;;4176203;28;20054;-49
2022/01/24 04:29:49;;;;;;;;;;;-3.20;99.90;;;;;;4177473;28;19925;-49
2022/01/24 04:31:51;;;;;;;;;;;-3.20;99.90;;;;;;4177971;28;19983;-50
2022/01/24 04:33:53;;;;;;;;;;;-3.30;99.90;;;;;;4175376;28;19934;-50
2022/01/24 04:35:55;;;;;;;;;;;-3.20;99.90;;;;;;4176133;28;20004;-49
2022/01/24 04:37:57;;;;;;;;;;;-3.10;99.90;;;;;;4163503;28;20371;-50
2022/01/24 04:39:59;;;;;;;;;;;-3.10;99.90;;;;;;4155019;28;20421;-49
2022/01/24 04:42:09;;;;;;;;;;;-3.10;99.90;;;;;;4177853;28;20364;-49
2022/01/24 04:46:31;;;;;;;;;;;-3.10;99.90;;;;;;4168674;28;20024;-48
2022/01/24 04:51:11;;;;;;;;;;;-2.90;99.90;;;;;;4161604;28;20020;-50
2022/01/24 04:53:51;;;;;;;;;;;-2.90;99.90;;;;;;4159518;28;19929;-49
2022/01/24 04:55:38;;;;;;;;;;;-2.80;99.90;;;;;;4175739;28;20435;-51
2022/01/24 04:57:39;;;;;;;;;;;-2.90;99.90;;;;;;4177292;28;19979;-50
2022/01/24 04:59:47;;;;;;;;;;;-2.90;99.90;;;;;;4159098;28;20468;-51
2022/01/24 05:01:48;;;;;;;;;;;-3.00;99.90;;;;;;4174738;28;20655;-47
2022/01/24 05:03:51;;;;;;;;;;;-3.10;99.90;;;;;;4174735;28;19925;-47
2022/01/24 05:05:53;;;;;;;;;;;-3.40;99.90;;;;;;4177988;28;19960;-52
2022/01/24 05:07:55;;;;;;;;;;;-3.50;99.90;;;;;;4172237;28;20393;-48
2022/01/24 05:10:09;;;;;;;;;;;-3.60;99.90;;;;;;4176102;28;20376;-49
2022/01/24 05:23:44;;;;;;;;;;;-3.70;99.90;;;;;;4154850;28;19959;-49
2022/01/24 05:25:46;;;;;;;;;;;-3.70;99.90;;;;;;4167106;28;20462;-49
2022/01/24 05:27:48;;;;;;;;;;;-3.80;99.90;;;;;;4178438;28;20837;-50
2022/01/24 05:29:50;;;;;;;;;;;-3.80;99.90;;;;;;4168788;28;20617;-47
2022/01/24 05:31:51;;;;;;;;;;;-3.90;99.90;;;;;;4175066;28;20498;-49
2022/01/24 05:33:53;;;;;;;;;;;-3.80;99.90;;;;;;4175824;28;19979;-49
2022/01/24 05:35:56;;;;;;;;;;;-3.80;99.90;;;;;;4174847;28;20659;-51
2022/01/24 05:37:58;;;;;;;;;;;-3.80;99.90;;;;;;4174608;28;20463;-49
2022/01/24 05:40:00;;;;;;;;;;;-3.90;99.90;;;;;;4167139;28;20040;-49
2022/01/24 05:42:02;;;;;;;;;;;-3.90;99.90;;;;;;4175328;28;19936;-47
2022/01/24 05:44:05;;;;;;;;;;;-4.00;99.90;;;;;;4174996;28;19933;-47
2022/01/24 05:46:07;;;;;;;;;;;-4.00;99.90;;;;;;4175441;28;19929;-48
2022/01/24 05:48:09;;;;;;;;;;;-4.00;99.90;;;;;;4176438;28;20627;-49
2022/01/24 05:50:11;;;;;;;;;;;-3.90;99.90;;;;;;4174642;28;19979;-50
2022/01/24 05:52:13;;;;;;;;;;;-3.90;99.90;;;;;;4170609;28;19925;-49
2022/01/24 05:54:15;;;;;;;;;;;-3.90;99.90;;;;;;4175051;28;20371;-49
2022/01/24 05:56:17;;;;;;;;;;;-3.90;99.90;;;;;;4173373;28;19925;-49
2022/01/24 05:58:19;;;;;;;;;;;-3.90;99.90;;;;;;4175490;28;20363;-50
2022/01/24 06:00:21;;;;;;;;;;;-3.90;99.90;;;;;;4158347;28;20580;-50
2022/01/24 06:02:23;;;;;;;;;;;-3.70;99.90;;;;;;4157762;28;20039;-51
2022/01/24 06:04:25;;;;;;;;;;;-3.70;99.90;;;;;;4175097;28;20410;-49
2022/01/24 06:06:27;;;;;;;;;;;-3.70;99.90;;;;;;4179631;28;20279;-49
2022/01/24 06:08:29;;;;;;;;;;;-3.50;99.90;;;;;;4170528;28;19968;-49
2022/01/24 06:10:31;;;;;;;;;;;-3.50;99.90;;;;;;4176276;28;19929;-50
2022/01/24 06:12:33;;;;;;;;;;;-3.50;99.90;;;;;;4176470;28;19925;-48
2022/01/24 06:14:35;;;;;;;;;;;-3.50;99.90;;;;;;4174661;28;20016;-49
2022/01/24 06:16:38;;;;;;;;;;;-3.50;99.90;;;;;;4175137;28;19964;-48
2022/01/24 06:18:40;;;;;;;;;;;-3.50;99.90;;;;;;4182037;28;19931;-48
2022/01/24 06:20:42;;;;;;;;;;;-3.50;99.90;;;;;;4172251;28;19940;-50
2022/01/24 06:22:45;;;;;;;;;;;-3.40;99.90;;;;;;4176017;28;20019;-50
2022/01/24 06:24:47;;;;;;;;;;;-3.40;99.90;;;;;;4175073;28;19929;-47
2022/01/24 06:27:09;;;;;;;;;;;-3.50;99.90;;;;;;4171491;28;19929;-52
2022/01/24 06:29:11;;;;;;;;;;;-3.40;99.90;;;;;;4159677;28;19961;-51
2022/01/24 06:31:13;;;;;;;;;;;-3.40;99.90;;;;;;4174537;28;19932;-51
2022/01/24 06:33:15;;;;;;;;;;;-3.40;99.90;;;;;;4174807;28;19929;-51
2022/01/24 06:35:17;;;;;;;;;;;-3.50;99.90;;;;;;4174427;28;19929;-51
2022/01/24 06:37:19;;;;;;;;;;;-3.60;99.90;;;;;;4177569;28;19929;-51
2022/01/24 06:39:21;;;;;;;;;;;-3.50;99.90;;;;;;4178676;28;20027;-49
2022/01/24 06:41:32;;;;;;;;;;;-3.50;99.90;;;;;;4179542;28;20344;-51
2022/01/24 06:43:34;;;;;;;;;;;-3.60;99.90;;;;;;4177743;28;19998;-49
2022/01/24 06:45:36;;;;;;;;;;;-3.60;99.90;;;;;;4179594;28;20016;-50
2022/01/24 06:47:38;;;;;;;;;;;-3.50;99.90;;;;;;4178420;28;20051;-51
2022/01/24 06:49:40;;;;;;;;;;;-3.50;99.90;;;;;;4178030;28;20426;-50
2022/01/24 06:51:42;;;;;;;;;;;-3.50;99.90;;;;;;4179751;28;19925;-51
2022/01/24 06:53:43;;;;;;;;;;;-3.60;99.90;;;;;;4178006;28;19964;-51
2022/01/24 06:55:45;;;;;;;;;;;-3.50;99.90;;;;;;4177954;28;20491;-48
2022/01/24 06:57:48;;;;;;;;;;;-3.50;99.90;;;;;;4179164;28;19971;-52
2022/01/24 06:59:50;;;;;;;;;;;-3.50;99.90;;;;;;4176468;28;20354;-49
2022/01/24 07:01:52;;;;;;;;;;;-3.60;99.90;;;;;;4177625;28;20638;-50
2022/01/24 07:03:54;;;;;;;;;;;-3.60;99.90;;;;;;4178245;28;19936;-49
2022/01/24 07:05:56;;;;;;;;;;;-3.60;99.90;;;;;;4179107;28;20032;-50
2022/01/24 07:07:59;;;;;;;;;;;-3.60;99.90;;;;;;4179186;28;19932;-51
2022/01/24 07:10:02;;;;;;;;;;;-3.50;99.90;;;;;;4177543;28;19928;-49
2022/01/24 07:12:24;;;;;;;;;;;-3.40;99.90;;;;;;4178733;28;20401;-52
2022/01/24 07:14:26;;;;;;;;;;;-3.50;99.90;;;;;;4179463;28;20304;-50
2022/01/24 07:16:38;;;;;;;;;;;-3.50;99.90;;;;;;4177853;28;19971;-49
2022/01/24 07:18:58;;;;;;;;;;;-3.50;99.90;;;;;;4174950;28;19932;-50
2022/01/24 07:21:01;;;;;;;;;;;-3.40;99.90;;;;;;4177602;28;20335;-51
2022/01/24 07:23:03;;;;;;;;;;;-3.30;99.90;;;;;;4177729;28;20443;-51
2022/01/24 07:25:05;;;;;;;;;;;-3.30;99.90;;;;;;4177940;28;20004;-50
2022/01/24 07:27:07;;;;;;;;;;;-3.40;99.90;;;;;;4163317;28;19962;-51
2022/01/24 07:29:09;;;;;;;;;;;-3.40;99.90;;;;;;4158118;28;19968;-51
2022/01/24 07:31:12;;;;;;;;;;;-3.50;99.90;;;;;;4177184;28;20399;-49
2022/01/24 07:33:16;;;;;;;;;;;-3.50;99.90;;;;;;4178510;28;19955;-49
2022/01/24 07:35:18;;;;;;;;;;;-3.50;99.90;;;;;;4177049;28;19995;-51
2022/01/24 07:37:21;;;;;;;;;;;-3.50;99.90;;;;;;4178633;28;20440;-52
2022/01/24 07:39:23;;;;;;;;;;;-3.60;99.90;;;;;;4178015;28;19925;-50
2022/01/24 07:41:28;;;;;;;;;;;-3.60;99.90;;;;;;4176938;28;20036;-49
2022/01/24 07:43:30;;;;;;;;;;;-3.50;99.90;;;;;;4177576;28;19928;-51
2022/01/24 07:45:32;;;;;;;;;;;-3.50;99.90;;;;;;4177432;28;20397;-49
2022/01/24 07:47:34;;;;;;;;;;;-3.40;99.90;;;;;;4177917;28;20372;-50
2022/01/24 07:49:36;;;;;;;;;;;-3.40;99.90;;;;;;4179147;28;19940;-50
2022/01/24 07:51:39;;;;;;;;;;;-3.30;99.90;;;;;;4175058;28;19972;-50
2022/01/24 07:53:41;;;;;;;;;;;-3.30;99.90;;;;;;4178251;28;19976;-49
2022/01/24 07:55:47;;;;;;;;;;;-3.20;99.90;;;;;;4180937;28;19933;-49
2022/01/24 07:57:49;;;;;;;;;;;-3.10;99.90;;;;;;4176428;28;20371;-49
2022/01/24 07:59:51;;;;;;;;;;;-3.10;99.90;;;;;;4178604;28;19978;-51
2022/01/24 08:01:53;;;;;;;;;;;-3.20;99.90;;;;;;4177443;28;19964;-51
2022/01/24 08:03:55;;;;;;;;;;;-3.10;99.90;;;;;;4176850;28;19929;-51
2022/01/24 08:05:56;;;;;;;;;;;-3.00;99.90;;;;;;4179120;28;19983;-51
2022/01/24 08:07:59;;;;;;;;;;;-3.00;99.90;;;;;;4167897;28;19944;-49
2022/01/24 08:10:01;;;;;;;;;;;-2.80;99.90;;;;;;4167144;28;20448;-52
2022/01/24 08:12:03;;;;;;;;;;;-2.60;99.90;;;;;;4177695;28;19929;-50
2022/01/24 08:14:05;;;;;;;;;;;-2.50;99.90;;;;;;4176478;28;20007;-51
2022/01/24 08:16:07;;;;;;;;;;;-2.50;99.90;;;;;;4177309;28;20010;-52
2022/01/24 08:18:09;;;;;;;;;;;-2.40;99.90;;;;;;4176073;28;19963;-49
2022/01/24 08:20:12;;;;;;;;;;;-2.40;99.90;;;;;;4175778;28;19979;-48
2022/01/24 08:22:34;;;;;;;;;;;-2.30;99.90;;;;;;4181160;28;19935;-49
2022/01/24 08:24:39;;;;;;;;;;;-2.20;99.90;;;;;;4178160;28;19931;-48
2022/01/24 08:26:41;;;;;;;;;;;-2.10;99.90;;;;;;4176525;28;19968;-49
2022/01/24 08:28:43;;;;;;;;;;;-1.90;99.90;;;;;;4178076;28;19932;-52
2022/01/24 08:30:45;;;;;;;;;;;-1.90;99.90;;;;;;4176757;28;20296;-52
2022/01/24 08:32:47;;;;;;;;;;;-1.80;99.90;;;;;;4175249;28;20024;-52
2022/01/24 08:34:49;;;;;;;;;;;-1.70;99.90;;;;;;4177953;28;20273;-51
2022/01/24 08:37:04;;;;;;;;;;;-1.70;99.90;;;;;;4174770;28;19936;-49
2022/01/24 08:39:08;;;;;;;;;;;-1.60;99.90;;;;;;4168095;28;19932;-50
2022/01/24 08:41:18;;;;;;;;;;;-1.60;99.90;;;;;;4177457;28;19976;-49
2022/01/24 08:43:36;;;;;;;;;;;-1.50;99.90;;;;;;4174544;28;19979;-52
2022/01/24 08:45:45;;;;;;;;;;;-1.50;99.90;;;;;;4176249;28;19975;-51
2022/01/24 08:47:47;;;;;;;;;;;-1.40;99.90;;;;;;4178411;28;19928;-52
2022/01/24 08:49:50;;;;;;;;;;;-1.40;99.90;;;;;;4175945;28;19985;-51
2022/01/24 08:51:52;;;;;;;;;;;-1.40;99.90;;;;;;4177577;28;19933;-51
2022/01/24 08:54:07;;;;;;;;;;;-1.30;99.90;;;;;;4169366;28;20148;-53
2022/01/24 08:56:11;;;;;;;;;;;-1.20;99.90;;;;;;4176025;28;20368;-52
2022/01/24 08:58:14;;;;;;;;;;;-1.10;99.90;;;;;;4157774;28;19968;-52
2022/01/24 09:00:16;;;;;;;;;;;-1.00;99.90;;;;;;4176360;28;19968;-52
2022/01/24 09:02:18;;;;;;;;;;;-0.70;99.90;;;;;;4175967;28;19968;-52
2022/01/24 09:04:20;;;;;;;;;;;-0.60;99.90;;;;;;4176239;28;19925;-52
2022/01/24 09:06:22;;;;;;;;;;;-0.50;99.90;;;;;;4174856;28;19978;-51
2022/01/24 09:08:24;;;;;;;;;;;-0.40;99.90;;;;;;4176432;28;20288;-52
2022/01/24 09:10:26;;;;;;;;;;;-0.40;99.90;;;;;;4177158;28;19940;-49
2022/01/24 09:12:28;;;;;;;;;;;-0.30;99.90;;;;;;4175853;28;20391;-50
2022/01/24 09:14:30;;;;;;;;;;;-0.20;99.90;;;;;;4175636;28;20405;-52
2022/01/24 09:16:32;;;;;;;;;;;-0.20;99.90;;;;;;4177370;28;19929;-51
2022/01/24 09:18:34;;;;;;;;;;;-0.10;99.90;;;;;;4174364;28;19931;-52
2022/01/24 09:20:38;;;;;;;;;;;0.00;99.90;;;;;;4177270;28;19975;-53
2022/01/24 09:22:40;;;;;;;;;;;0.10;99.90;;;;;;4175622;28;20020;-52
2022/01/24 09:24:42;;;;;;;;;;;0.20;99.90;;;;;;4175181;28;19929;-51
2022/01/24 09:26:44;;;;;;;;;;;0.30;99.90;;;;;;4177775;28;19967;-52
2022/01/24 09:28:46;;;;;;;;;;;0.30;99.90;;;;;;4175207;28;19979;-53
2022/01/24 09:30:50;;;;;;;;;;;0.40;99.90;;;;;;4176602;28;19928;-53
2022/01/24 09:32:52;;;;;;;;;;;0.60;99.90;;;;;;4175254;28;20166;-52
2022/01/24 09:34:54;;;;;;;;;;;0.70;99.90;;;;;;4175452;28;19931;-53
2022/01/24 09:36:56;;;;;;;;;;;0.70;99.90;;;;;;4175990;28;20584;-53
2022/01/24 09:38:58;;;;;;;;;;;0.80;99.90;;;;;;4176916;28;19955;-53
2022/01/24 09:41:03;;;;;;;;;;;1.00;99.90;;;;;;4176611;28;19928;-53
2022/01/24 09:43:05;;;;;;;;;;;1.10;99.90;;;;;;4177099;28;19932;-52
2022/01/24 09:45:07;;;;;;;;;;;1.30;99.90;;;;;;4175559;28;19967;-52
2022/01/24 09:47:10;;;;;;;;;;;1.40;99.90;;;;;;4176523;28;20352;-52
2022/01/24 09:49:12;;;;;;;;;;;1.60;99.90;;;;;;4176389;28;20398;-53
2022/01/24 09:51:14;;;;;;;;;;;1.60;99.90;;;;;;4175460;28;19956;-53
2022/01/24 09:53:17;;;;;;;;;;;1.70;99.90;;;;;;4168010;28;20649;-52
2022/01/24 09:55:21;;;;;;;;;;;1.80;99.90;;;;;;4175815;28;19956;-54
2022/01/24 09:57:22;;;;;;;;;;;1.80;99.90;;;;;;4175272;28;19925;-52
2022/01/24 09:59:24;;;;;;;;;;;1.90;99.90;;;;;;4176622;28;20012;-53
2022/01/24 10:01:26;;;;;;;;;;;2.10;99.90;;;;;;4174764;28;20416;-54
2022/01/24 10:03:28;;;;;;;;;;;2.20;99.90;;;;;;4174906;28;19925;-53
2022/01/24 10:05:42;;;;;;;;;;;2.30;99.90;;;;;;4176710;28;19929;-52
2022/01/24 10:08:03;;;;;;;;;;;2.40;99.90;;;;;;4175562;28;20572;-52
2022/01/24 10:10:05;;;;;;;;;;;2.60;99.90;;;;;;4176430;28;19936;-53
2022/01/24 10:12:15;;;;;;;;;;;2.70;99.90;;;;;;4180329;28;19971;-54
2022/01/24 10:16:55;;;;;;;;;;;3.00;99.90;;;;;;4178085;28;20412;-54
2022/01/24 10:18:58;;;;;;;;;;;3.30;99.90;;;;;;4179063;28;19935;-54
2022/01/24 10:21:20;;;;;;;;;;;3.50;99.90;;;;;;4179195;28;20019;-53
2022/01/24 10:23:24;;;;;;;;;;;3.70;99.90;;;;;;4160600;28;19929;-52
2022/01/24 10:25:29;;;;;;;;;;;3.80;99.90;;;;;;4180079;28;19948;-54
2022/01/24 10:27:31;;;;;;;;;;;4.00;99.90;;;;;;4176143;28;19975;-54
2022/01/24 10:29:33;;;;;;;;;;;4.20;99.90;;;;;;4177947;28;19952;-53
2022/01/24 10:31:43;;;;;;;;;;;4.40;99.90;;;;;;4179877;28;20023;-53
2022/01/24 10:33:52;;;;;;;;;;;4.50;99.90;;;;;;4178369;28;19925;-54
2022/01/24 10:36:02;;;;;;;;;;;4.60;99.90;;;;;;4178488;28;19979;-54
2022/01/24 10:38:33;;;;;;;;;;;4.80;99.90;;;;;;4178930;28;19929;-53
2022/01/24 10:40:49;;;;;;;;;;;5.00;99.90;;;;;;4175845;28;19924;-54
2022/01/24 10:42:55;;;;;;;;;;;5.20;99.90;;;;;;4177959;28;19935;-53
2022/01/24 10:45:25;;;;;;;;;;;5.40;99.90;;;;;;4178631;28;19961;-53
2022/01/24 10:47:30;;;;;;;;;;;5.60;99.90;;;;;;4177150;28;20507;-54
2022/01/24 10:49:32;;;;;;;;;;;5.80;99.90;;;;;;4177646;28;20024;-54
2022/01/24 10:51:38;;;;;;;;;;;5.90;99.90;;;;;;4177299;28;19975;-53
2022/01/24 10:53:50;;;;;;;;;;;6.20;99.90;;;;;;4177827;28;19925;-53
2022/01/24 10:55:53;;;;;;;;;;;6.40;99.90;;;;;;4177745;28;19925;-54
2022/01/24 10:57:58;;;;;;;;;;;6.60;99.90;;;;;;4161148;28;19925;-52
2022/01/24 11:00:11;;;;;;;;;;;6.80;99.90;;;;;;4176677;28;19926;-53
2022/01/24 11:02:14;;;;;;;;;;;7.00;99.90;;;;;;4177520;28;19928;-54
2022/01/24 11:04:17;;;;;;;;;;;7.20;99.90;;;;;;4179132;28;19961;-54
2022/01/24 11:06:29;;;;;;;;;;;7.30;99.90;;;;;;4178023;28;19925;-53
2022/01/24 11:08:31;;;;;;;;;;;7.50;99.90;;;;;;4174493;28;19963;-53
2022/01/24 11:10:34;;;;;;;;;;;7.60;99.90;;;;;;4163317;28;19968;-53
2022/01/24 11:12:36;;;;;;;;;;;7.90;99.90;;;;;;4175795;28;19947;-54
2022/01/24 11:14:39;;;;;;;;;;;8.50;99.90;;;;;;4175266;28;19936;-54
2022/01/24 11:16:41;;;;;;;;;;;8.70;99.90;;;;;;4179208;28;20409;-54
2022/01/24 11:18:44;;;;;;;;;;;8.80;99.90;;;;;;4175079;28;19931;-53
2022/01/24 11:20:46;;;;;;;;;;;8.70;99.90;;;;;;4178902;28;20407;-53
2022/01/24 11:22:53;;;;;;;;;;;8.70;99.90;;;;;;4176646;28;20490;-54
2022/01/24 11:25:02;;;;;;;;;;;8.80;99.90;;;;;;4175546;28;19940;-53
2022/01/24 11:27:09;;;;;;;;;;;8.90;99.90;;;;;;4178956;28;19928;-54
2022/01/24 11:29:12;;;;;;;;;;;9.40;99.90;;;;;;4168446;28;20658;-54
2022/01/24 11:31:21;;;;;;;;;;;9.30;99.90;;;;;;4174625;28;19932;-55
2022/01/24 11:33:32;;;;;;;;;;;9.60;99.90;;;;;;4179475;28;19952;-53
2022/01/24 11:35:36;;;;;;;;;;;9.80;99.90;;;;;;4175425;28;19964;-51
2022/01/24 11:37:45;;;;;;;;;;;10.00;99.90;;;;;;4176353;28;19935;-52
2022/01/24 11:39:53;;;;;;;;;;;10.10;99.90;;;;;;4168954;28;19925;-52
2022/01/24 11:41:55;;;;;;;;;;;10.20;99.90;;;;;;4172415;28;19925;-52
2022/01/24 11:44:08;;;;;;;;;;;10.40;99.90;;;;;;4171623;28;19964;-51
2022/01/24 11:46:28;;;;;;;;;;;10.20;99.90;;;;;;4177602;28;20262;-54
2022/01/24 11:49:10;;;;;;;;;;;10.20;99.90;;;;;;4176860;28;19928;-51
2022/01/24 11:51:12;;;;;;;;;;;10.10;99.90;;;;;;4175257;28;19929;-52
2022/01/24 11:53:24;;;;;;;;;;;10.20;99.90;;;;;;4174198;28;19925;-52
2022/01/24 11:55:33;;;;;;;;;;;10.40;99.90;;;;;;4176509;28;20031;-51
2022/01/24 11:57:57;;;;;;;;;;;10.50;99.90;;;;;;4177501;28;20528;-51
2022/01/24 12:00:05;;;;;;;;;;;10.60;99.90;;;;;;4189347;28;20015;-52
2022/01/24 12:02:09;;;;;;;;;;;10.20;99.90;;;;;;4171617;28;19999;-52
2022/01/24 12:04:11;;;;;;;;;;;10.30;99.90;;;;;;4176806;28;19929;-51
2022/01/24 12:06:19;;;;;;;;;;;10.30;99.90;;;;;;4168838;28;19935;-52
2022/01/24 12:08:38;;;;;;;;;;;10.30;99.90;;;;;;4182982;28;19928;-52
2022/01/24 12:10:51;;;;;;;;;;;10.40;99.90;;;;;;4168357;28;20023;-52
2022/01/24 12:12:56;;;;;;;;;;;10.70;99.90;;;;;;4182992;28;19970;-51
2022/01/24 12:14:58;;;;;;;;;;;10.80;99.90;;;;;;4179568;28;19932;-52
2022/01/24 12:17:00;;;;;;;;;;;11.60;99.90;;;;;;4181215;28;19928;-51
2022/01/24 12:19:03;;;;;;;;;;;11.80;99.70;;;;;;4178286;28;20438;-51
2022/01/24 12:21:10;;;;;;;;;;;12.10;99.90;;;;;;4178112;28;19972;-50
2022/01/24 12:23:24;;;;;;;;;;;12.10;97.70;;;;;;4177904;28;20020;-52
2022/01/24 12:25:48;;;;;;;;;;;11.90;97.00;;;;;;4176536;28;19928;-52
2022/01/24 12:28:08;;;;;;;;;;;12.10;98.70;;;;;;4176501;28;19925;-51
2022/01/24 12:30:10;;;;;;;;;;;12.50;95.90;;;;;;4176350;28;19932;-51
2022/01/24 12:32:22;;;;;;;;;;;12.50;95.30;;;;;;4180719;28;20793;-50
2022/01/24 12:34:24;;;;;;;;;;;12.50;96.60;;;;;;4153934;28;19984;-51
2022/01/24 12:36:48;;;;;;;;;;;12.50;95.20;;;;;;4175398;28;19979;-47
2022/01/24 12:38:51;;;;;;;;;;;12.00;94.30;;;;;;4181110;28;19982;-47
2022/01/24 12:41:13;;;;;;;;;;;11.60;95.40;;;;;;4174569;28;20165;-49
2022/01/24 12:43:29;;;;;;;;;;;11.50;95.20;;;;;;4167163;28;20019;-46
2022/01/24 12:47:51;;;;;;;;;;;11.70;94.60;;;;;;4174012;28;20015;-47
2022/01/24 12:49:54;;;;;;;;;;;11.10;95.00;;;;;;4176480;28;20369;-48
2022/01/24 12:52:03;;;;;;;;;;;11.20;95.40;;;;;;4177850;28;19932;-48
2022/01/24 12:54:05;;;;;;;;;;;11.30;95.40;;;;;;4175588;28;19970;-49
2022/01/24 12:56:08;;;;;;;;;;;11.00;95.60;;;;;;4177701;28;19929;-47
2022/01/24 12:58:10;;;;;;;;;;;10.90;96.10;;;;;;4177296;28;19935;-48
2022/01/24 13:00:16;;;;;;;;;;;11.10;96.70;;;;;;4175555;28;19928;-49
2022/01/24 13:02:30;;;;;;;;;;;11.40;96.30;;;;;;4176627;28;20007;-49
2022/01/24 13:04:37;;;;;;;;;;;11.50;95.20;;;;;;4175967;28;19956;-49
2022/01/24 13:06:43;;;;;;;;;;;11.60;96.00;;;;;;4175775;28;19976;-47
2022/01/24 13:08:52;;;;;;;;;;;11.50;96.20;;;;;;4176600;28;19924;-47
2022/01/24 13:10:54;;;;;;;;;;;11.40;96.30;;;;;;4176625;28;19924;-48
2022/01/24 13:12:58;;;;;;;;;;;11.30;96.60;;;;;;4159174;28;20961;-48
2022/01/24 13:15:04;;;;;;;;;;;11.10;96.50;;;;;;4172305;28;20460;-46
2022/01/24 13:21:59;;;;;;;;;;;11.60;95.80;;;;;;4165362;28;19929;-46
2022/01/24 13:24:05;;;;;;;;;;;11.30;95.90;;;;;;4178104;28;19960;-47
2022/01/24 13:26:07;;;;;;;;;;;11.30;95.70;;;;;;4175241;28;19963;-48
2022/01/24 13:28:13;;;;;;;;;;;11.10;95.60;;;;;;4176765;28;19936;-47
2022/01/24 13:30:22;;;;;;;;;;;11.10;95.80;;;;;;4174983;28;19932;-48
2022/01/24 13:32:40;;;;;;;;;;;11.10;95.10;;;;;;4173924;28;20621;-54
2022/01/24 13:34:42;;;;;;;;;;;10.90;95.30;;;;;;4169072;28;20460;-53
2022/01/24 13:36:44;;;;;;;;;;;10.90;96.00;;;;;;4176766;28;20031;-52
2022/01/24 13:38:47;;;;;;;;;;;11.30;95.40;;;;;;4177002;28;20019;-54
2022/01/24 13:40:59;;;;;;;;;;;11.20;95.50;;;;;;4176701;28;19956;-52
2022/01/24 13:43:01;;;;;;;;;;;11.20;95.50;;;;;;4176344;28;20388;-53
2022/01/24 13:45:04;;;;;;;;;;;11.30;95.00;;;;;;4181736;28;19925;-54